RA601 URML-URWA
Flight info
| Callsign | RA601 |
|---|---|
| Flight time | N/A |
| Altitude | 6000 |
| Route | EMTEZ/K0302F070 DCT AMKOL B945 UP UP5K |
| Aircraft | DA62/L-SDFGRY/C |
Departure
| Time | 2026-04-29 14:29 |
|---|---|
| Airport | Makhachkala Uytash International Airport (URML) |
Arrival
| Time | N/A |
|---|---|
| Airport | Astrakhan Narimanovo Boris M. Kustodiev International Airport (URWA) |
| Time | Latitude | Longitude | Altitude | Speed | Heading |
|---|---|---|---|---|---|
| 2026-04-29 14:11 | 42.81690 | 47.65677 | 16 ft | 0 kts | 124° |
| 2026-04-29 14:20 | 42.81688 | 47.65680 | 16 ft | 2 kts | 117° |
| 2026-04-29 14:20 | 42.81678 | 47.65712 | 16 ft | 4 kts | 113° |
| 2026-04-29 14:20 | 42.81672 | 47.65751 | 16 ft | 4 kts | 75° |
| 2026-04-29 14:21 | 42.81680 | 47.65790 | 16 ft | 3 kts | 49° |
| 2026-04-29 14:22 | 42.81681 | 47.65791 | 16 ft | 2 kts | 46° |
| 2026-04-29 14:22 | 42.81700 | 47.65793 | 16 ft | 3 kts | 332° |
| 2026-04-29 14:22 | 42.81721 | 47.65769 | 16 ft | 4 kts | 313° |
| 2026-04-29 14:23 | 42.81736 | 47.65742 | 16 ft | 0 kts | 304° |
| 2026-04-29 14:23 | 42.81745 | 47.65724 | 16 ft | 4 kts | 307° |
| 2026-04-29 14:23 | 42.81757 | 47.65703 | 16 ft | 0 kts | 306° |
| 2026-04-29 14:23 | 42.81771 | 47.65676 | 16 ft | 6 kts | 306° |
| 2026-04-29 14:24 | 42.81789 | 47.65638 | 16 ft | 1 kts | 290° |
| 2026-04-29 14:24 | 42.81792 | 47.65619 | 16 ft | 10 kts | 278° |
| 2026-04-29 14:24 | 42.81767 | 47.65562 | 16 ft | 7 kts | 229° |
| 2026-04-29 14:24 | 42.81739 | 47.65505 | 16 ft | 8 kts | 237° |
| 2026-04-29 14:25 | 42.81708 | 47.65438 | 16 ft | 9 kts | 237° |
| 2026-04-29 14:25 | 42.81673 | 47.65365 | 15 ft | 0 kts | 237° |
| 2026-04-29 14:27 | 42.81664 | 47.65346 | 15 ft | 13 kts | 237° |
| 2026-04-29 14:28 | 42.81677 | 47.65244 | 14 ft | 0 kts | 324° |
| 2026-04-29 14:28 | 42.81705 | 47.65220 | 14 ft | 26 kts | 329° |
| 2026-04-29 14:28 | 42.82051 | 47.64936 | 15 ft | 84 kts | 329° |
| 2026-04-29 14:28 | 42.82621 | 47.64438 | 157 ft | 103 kts | 328° |
| 2026-04-29 14:29 | 42.83246 | 47.63856 | 334 ft | 119 kts | 323° |
| 2026-04-29 14:29 | 42.83532 | 47.62764 | 427 ft | 137 kts | 264° |
| 2026-04-29 14:29 | 42.83594 | 47.61439 | 525 ft | 149 kts | 299° |
| 2026-04-29 14:29 | 42.84415 | 47.60602 | 617 ft | 153 kts | 345° |
| 2026-04-29 14:30 | 42.85450 | 47.60196 | 721 ft | 157 kts | 336° |
| 2026-04-29 14:30 | 42.86391 | 47.59410 | 811 ft | 160 kts | 326° |
| 2026-04-29 14:30 | 42.87297 | 47.58522 | 920 ft | 161 kts | 325° |
| 2026-04-29 14:30 | 42.88205 | 47.57623 | 1023 ft | 161 kts | 326° |
| 2026-04-29 14:31 | 42.89116 | 47.56725 | 1129 ft | 162 kts | 326° |
| 2026-04-29 14:31 | 42.90028 | 47.55832 | 1233 ft | 162 kts | 326° |
| 2026-04-29 14:31 | 42.90933 | 47.54937 | 1337 ft | 157 kts | 324° |
| 2026-04-29 14:31 | 42.91802 | 47.54078 | 1440 ft | 152 kts | 325° |
| 2026-04-29 14:32 | 42.92647 | 47.53248 | 1546 ft | 148 kts | 325° |
| 2026-04-29 14:32 | 42.93472 | 47.52433 | 1647 ft | 145 kts | 325° |
| 2026-04-29 14:32 | 42.94282 | 47.51637 | 1751 ft | 142 kts | 326° |
| 2026-04-29 14:32 | 42.94812 | 47.51116 | 1823 ft | 142 kts | 325° |
| 2026-04-29 14:33 | 42.95614 | 47.50324 | 1919 ft | 143 kts | 325° |
| 2026-04-29 14:33 | 42.96422 | 47.49528 | 1978 ft | 145 kts | 325° |
| 2026-04-29 14:33 | 42.97256 | 47.48707 | 1983 ft | 150 kts | 325° |
| 2026-04-29 14:33 | 42.98113 | 47.47861 | 1982 ft | 154 kts | 324° |
| 2026-04-29 14:34 | 42.98984 | 47.47002 | 1989 ft | 156 kts | 325° |
| 2026-04-29 14:34 | 43.00154 | 47.45846 | 1988 ft | 158 kts | 325° |
| 2026-04-29 14:34 | 43.01043 | 47.44969 | 1988 ft | 158 kts | 325° |
| 2026-04-29 14:34 | 43.01647 | 47.44372 | 1991 ft | 158 kts | 325° |
| 2026-04-29 14:35 | 43.02542 | 47.43487 | 1989 ft | 159 kts | 325° |
| 2026-04-29 14:35 | 43.03438 | 47.42601 | 1988 ft | 159 kts | 325° |
| 2026-04-29 14:35 | 43.04320 | 47.41731 | 1990 ft | 159 kts | 325° |
| 2026-04-29 14:35 | 43.05214 | 47.40845 | 1989 ft | 159 kts | 325° |
| 2026-04-29 14:36 | 43.06110 | 47.39959 | 1991 ft | 159 kts | 324° |
| 2026-04-29 14:36 | 43.07005 | 47.39070 | 1990 ft | 159 kts | 325° |
| 2026-04-29 14:36 | 43.07898 | 47.38190 | 1992 ft | 158 kts | 325° |
| 2026-04-29 14:36 | 43.08791 | 47.37303 | 1985 ft | 159 kts | 325° |
| 2026-04-29 14:37 | 43.09695 | 47.36405 | 1984 ft | 161 kts | 326° |
| 2026-04-29 14:37 | 43.10645 | 47.35586 | 1978 ft | 162 kts | 340° |
| 2026-04-29 14:37 | 43.11745 | 47.35378 | 1976 ft | 160 kts | 6° |
| 2026-04-29 14:37 | 43.12839 | 47.35678 | 1980 ft | 161 kts | 13° |
| 2026-04-29 14:38 | 43.13933 | 47.35997 | 1981 ft | 161 kts | 14° |
| 2026-04-29 14:38 | 43.15026 | 47.36313 | 1980 ft | 160 kts | 14° |
| 2026-04-29 14:38 | 43.16113 | 47.36629 | 1978 ft | 159 kts | 13° |
| 2026-04-29 14:38 | 43.17197 | 47.36942 | 1982 ft | 159 kts | 14° |
| 2026-04-29 14:39 | 43.18283 | 47.37258 | 1979 ft | 159 kts | 14° |
| 2026-04-29 14:39 | 43.19370 | 47.37574 | 1979 ft | 160 kts | 14° |
| 2026-04-29 14:39 | 43.20454 | 47.37889 | 1979 ft | 159 kts | 13° |
| 2026-04-29 14:39 | 43.21520 | 47.38199 | 1979 ft | 158 kts | 14° |
| 2026-04-29 14:40 | 43.22591 | 47.38510 | 1979 ft | 158 kts | 13° |
| 2026-04-29 14:40 | 43.23664 | 47.38821 | 1980 ft | 158 kts | 14° |
| 2026-04-29 14:40 | 43.24728 | 47.39133 | 1991 ft | 156 kts | 12° |
| 2026-04-29 14:40 | 43.25791 | 47.39442 | 1993 ft | 156 kts | 12° |
| 2026-04-29 14:41 | 43.26855 | 47.39751 | 1994 ft | 156 kts | 13° |
| 2026-04-29 14:41 | 43.27918 | 47.40061 | 1994 ft | 156 kts | 13° |
| 2026-04-29 14:41 | 43.28982 | 47.40370 | 1994 ft | 158 kts | 12° |
| 2026-04-29 14:41 | 43.30065 | 47.40687 | 1993 ft | 161 kts | 12° |
| 2026-04-29 14:42 | 43.31163 | 47.41008 | 1995 ft | 162 kts | 12° |
| 2026-04-29 14:42 | 43.32269 | 47.41330 | 1993 ft | 163 kts | 12° |
| 2026-04-29 14:42 | 43.33377 | 47.41653 | 1994 ft | 163 kts | 12° |
| 2026-04-29 14:42 | 43.34485 | 47.41977 | 1991 ft | 163 kts | 12° |
| 2026-04-29 14:43 | 43.35590 | 47.42298 | 1989 ft | 163 kts | 14° |
| 2026-04-29 14:43 | 43.36701 | 47.42624 | 1990 ft | 163 kts | 14° |
| 2026-04-29 14:43 | 43.37817 | 47.42950 | 1992 ft | 165 kts | 15° |
| 2026-04-29 14:43 | 43.38944 | 47.43281 | 1991 ft | 165 kts | 14° |
| 2026-04-29 14:44 | 43.40057 | 47.43606 | 1994 ft | 165 kts | 14° |
| 2026-04-29 14:44 | 43.41198 | 47.43929 | 1994 ft | 165 kts | 12° |
| 2026-04-29 14:44 | 43.42308 | 47.44237 | 1992 ft | 165 kts | 12° |
| 2026-04-29 14:44 | 43.43430 | 47.44564 | 1993 ft | 165 kts | 14° |
| 2026-04-29 14:45 | 43.44556 | 47.44896 | 1988 ft | 166 kts | 13° |
| 2026-04-29 14:45 | 43.45680 | 47.45225 | 1988 ft | 165 kts | 13° |
| 2026-04-29 14:45 | 43.46803 | 47.45554 | 1989 ft | 164 kts | 12° |
| 2026-04-29 14:45 | 43.47917 | 47.45881 | 1987 ft | 163 kts | 12° |
| 2026-04-29 14:46 | 43.49026 | 47.46207 | 1986 ft | 163 kts | 12° |
| 2026-04-29 14:46 | 43.50135 | 47.46532 | 1981 ft | 163 kts | 12° |
| 2026-04-29 14:46 | 43.51238 | 47.46855 | 1984 ft | 162 kts | 12° |
| 2026-04-29 14:46 | 43.52342 | 47.47180 | 1976 ft | 162 kts | 12° |
| 2026-04-29 14:47 | 43.53442 | 47.47503 | 1981 ft | 162 kts | 12° |
| 2026-04-29 14:47 | 43.54541 | 47.47828 | 1983 ft | 161 kts | 12° |
| 2026-04-29 14:47 | 43.55639 | 47.48148 | 1985 ft | 160 kts | 12° |
| 2026-04-29 14:47 | 43.56728 | 47.48468 | 1984 ft | 160 kts | 12° |
| 2026-04-29 14:48 | 43.57814 | 47.48789 | 1984 ft | 160 kts | 12° |
| 2026-04-29 14:48 | 43.58888 | 47.49105 | 1975 ft | 161 kts | 12° |
| 2026-04-29 14:48 | 43.59982 | 47.49427 | 1981 ft | 161 kts | 12° |
| 2026-04-29 14:48 | 43.61078 | 47.49751 | 1984 ft | 161 kts | 12° |
| 2026-04-29 14:49 | 43.62192 | 47.49918 | 1994 ft | 162 kts | 355° |
| 2026-04-29 14:49 | 43.63316 | 47.49704 | 1991 ft | 163 kts | 353° |
| 2026-04-29 14:49 | 43.64450 | 47.49501 | 1988 ft | 164 kts | 354° |
| 2026-04-29 14:49 | 43.65585 | 47.49301 | 1987 ft | 165 kts | 354° |
| 2026-04-29 14:50 | 43.66721 | 47.49097 | 1986 ft | 165 kts | 354° |
| 2026-04-29 14:50 | 43.67860 | 47.48892 | 1985 ft | 165 kts | 354° |
| 2026-04-29 14:50 | 43.68998 | 47.48689 | 1984 ft | 165 kts | 354° |
| 2026-04-29 14:50 | 43.70135 | 47.48483 | 1982 ft | 165 kts | 353° |
| 2026-04-29 14:51 | 43.71273 | 47.48278 | 1983 ft | 164 kts | 353° |
| 2026-04-29 14:51 | 43.72392 | 47.48077 | 1985 ft | 164 kts | 354° |
| 2026-04-29 14:51 | 43.73523 | 47.47873 | 1975 ft | 164 kts | 354° |
| 2026-04-29 14:51 | 43.74655 | 47.47670 | 1981 ft | 164 kts | 354° |
| 2026-04-29 14:52 | 43.75788 | 47.47466 | 1982 ft | 164 kts | 354° |
| 2026-04-29 14:52 | 43.76916 | 47.47262 | 1979 ft | 163 kts | 354° |
| 2026-04-29 14:52 | 43.78041 | 47.47060 | 1979 ft | 163 kts | 354° |
| 2026-04-29 14:52 | 43.79161 | 47.46858 | 1970 ft | 162 kts | 354° |
| 2026-04-29 14:53 | 43.80279 | 47.46656 | 1983 ft | 162 kts | 354° |
| 2026-04-29 14:53 | 43.81403 | 47.46454 | 1981 ft | 163 kts | 354° |
| 2026-04-29 14:53 | 43.82528 | 47.46250 | 1982 ft | 163 kts | 354° |
| 2026-04-29 14:53 | 43.83655 | 47.46047 | 1978 ft | 163 kts | 354° |
| 2026-04-29 14:54 | 43.84783 | 47.45843 | 1984 ft | 164 kts | 354° |
| 2026-04-29 14:54 | 43.85920 | 47.45638 | 1985 ft | 165 kts | 354° |
| 2026-04-29 14:54 | 43.87064 | 47.45431 | 1980 ft | 167 kts | 354° |
| 2026-04-29 14:54 | 43.88213 | 47.45223 | 1983 ft | 166 kts | 354° |
| 2026-04-29 14:55 | 43.89361 | 47.45015 | 1981 ft | 167 kts | 354° |
| 2026-04-29 14:55 | 43.90513 | 47.44807 | 1981 ft | 167 kts | 354° |
| 2026-04-29 14:55 | 43.91668 | 47.44598 | 1981 ft | 168 kts | 354° |
| 2026-04-29 14:55 | 43.92826 | 47.44389 | 1981 ft | 168 kts | 354° |
| 2026-04-29 14:56 | 43.93963 | 47.44182 | 1981 ft | 166 kts | 354° |
| 2026-04-29 14:56 | 43.95106 | 47.43974 | 1981 ft | 165 kts | 354° |
| 2026-04-29 14:56 | 43.96246 | 47.43767 | 1982 ft | 165 kts | 354° |
| 2026-04-29 14:56 | 43.97390 | 47.43560 | 1981 ft | 166 kts | 354° |
| 2026-04-29 14:57 | 43.98533 | 47.43354 | 1981 ft | 166 kts | 354° |
| 2026-04-29 14:57 | 43.99677 | 47.43145 | 1985 ft | 166 kts | 354° |
| 2026-04-29 14:57 | 44.00824 | 47.42937 | 1981 ft | 166 kts | 354° |
| 2026-04-29 14:57 | 44.01966 | 47.42729 | 1981 ft | 165 kts | 354° |
| 2026-04-29 14:58 | 44.03102 | 47.42523 | 1983 ft | 164 kts | 354° |
| 2026-04-29 14:58 | 44.04234 | 47.42317 | 1981 ft | 164 kts | 354° |
| 2026-04-29 14:58 | 44.05367 | 47.42111 | 1981 ft | 164 kts | 354° |
| 2026-04-29 14:58 | 44.06495 | 47.41905 | 1981 ft | 163 kts | 354° |
| 2026-04-29 14:59 | 44.07619 | 47.41700 | 1981 ft | 163 kts | 354° |
| 2026-04-29 14:59 | 44.08740 | 47.41496 | 1983 ft | 162 kts | 354° |
| 2026-04-29 14:59 | 44.09863 | 47.41291 | 1981 ft | 163 kts | 354° |
| 2026-04-29 14:59 | 44.10993 | 47.41086 | 1980 ft | 164 kts | 354° |
| 2026-04-29 15:00 | 44.12128 | 47.40879 | 1985 ft | 164 kts | 354° |
| 2026-04-29 15:00 | 44.13266 | 47.40672 | 1983 ft | 165 kts | 354° |
| 2026-04-29 15:00 | 44.14404 | 47.40464 | 1982 ft | 165 kts | 354° |
| 2026-04-29 15:00 | 44.15540 | 47.40257 | 1982 ft | 164 kts | 354° |
| 2026-04-29 15:01 | 44.16673 | 47.40050 | 1984 ft | 164 kts | 354° |
| 2026-04-29 15:01 | 44.17804 | 47.39843 | 1983 ft | 164 kts | 354° |
| 2026-04-29 15:01 | 44.18940 | 47.39635 | 1983 ft | 165 kts | 354° |
| 2026-04-29 15:01 | 44.20084 | 47.39427 | 1983 ft | 166 kts | 354° |
| 2026-04-29 15:02 | 44.21219 | 47.39219 | 1982 ft | 167 kts | 354° |
| 2026-04-29 15:02 | 44.22370 | 47.39008 | 1979 ft | 167 kts | 354° |
| 2026-04-29 15:02 | 44.23521 | 47.38797 | 1981 ft | 167 kts | 354° |
| 2026-04-29 15:02 | 44.24681 | 47.38585 | 1978 ft | 168 kts | 354° |
| 2026-04-29 15:03 | 44.25835 | 47.38373 | 1980 ft | 167 kts | 354° |
| 2026-04-29 15:03 | 44.26981 | 47.38163 | 1980 ft | 166 kts | 354° |
| 2026-04-29 15:03 | 44.28128 | 47.37954 | 1981 ft | 167 kts | 354° |
| 2026-04-29 15:03 | 44.29284 | 47.37742 | 1980 ft | 168 kts | 354° |
| 2026-04-29 15:04 | 44.30440 | 47.37530 | 1981 ft | 167 kts | 354° |
| 2026-04-29 15:04 | 44.31595 | 47.37317 | 1979 ft | 167 kts | 354° |
| 2026-04-29 15:04 | 44.32744 | 47.37106 | 1981 ft | 166 kts | 353° |
| 2026-04-29 15:04 | 44.33888 | 47.36895 | 1979 ft | 166 kts | 354° |
| 2026-04-29 15:05 | 44.35032 | 47.36685 | 1980 ft | 166 kts | 353° |
| 2026-04-29 15:05 | 44.36177 | 47.36475 | 1979 ft | 166 kts | 354° |
| 2026-04-29 15:05 | 44.37327 | 47.36265 | 1980 ft | 167 kts | 353° |
| 2026-04-29 15:05 | 44.38475 | 47.36051 | 1981 ft | 166 kts | 353° |
| 2026-04-29 15:06 | 44.39627 | 47.35841 | 1982 ft | 167 kts | 353° |
| 2026-04-29 15:06 | 44.40782 | 47.35628 | 1982 ft | 167 kts | 353° |
| 2026-04-29 15:06 | 44.41940 | 47.35414 | 1984 ft | 168 kts | 354° |
| 2026-04-29 15:06 | 44.43105 | 47.35201 | 1981 ft | 169 kts | 354° |
| 2026-04-29 15:07 | 44.44271 | 47.34985 | 1982 ft | 168 kts | 354° |
| 2026-04-29 15:07 | 44.45431 | 47.34770 | 1982 ft | 168 kts | 353° |
| 2026-04-29 15:07 | 44.46580 | 47.34559 | 1979 ft | 170 kts | 353° |
| 2026-04-29 15:07 | 44.47755 | 47.34343 | 1977 ft | 171 kts | 353° |
| 2026-04-29 15:08 | 44.48927 | 47.34125 | 1977 ft | 169 kts | 353° |
| 2026-04-29 15:08 | 44.50089 | 47.33910 | 1978 ft | 167 kts | 354° |
| 2026-04-29 15:08 | 44.51239 | 47.33697 | 1977 ft | 167 kts | 354° |
| 2026-04-29 15:08 | 44.52390 | 47.33485 | 1977 ft | 167 kts | 354° |
| 2026-04-29 15:09 | 44.53543 | 47.33266 | 1980 ft | 167 kts | 354° |
| 2026-04-29 15:09 | 44.54691 | 47.33041 | 1977 ft | 167 kts | 353° |
| 2026-04-29 15:09 | 44.55839 | 47.32819 | 1976 ft | 167 kts | 353° |
| 2026-04-29 15:09 | 44.56991 | 47.32595 | 1977 ft | 167 kts | 354° |
| 2026-04-29 15:10 | 44.58146 | 47.32373 | 1978 ft | 168 kts | 354° |
| 2026-04-29 15:10 | 44.59308 | 47.32149 | 1977 ft | 169 kts | 354° |
| 2026-04-29 15:10 | 44.60475 | 47.31924 | 1977 ft | 169 kts | 353° |
| 2026-04-29 15:10 | 44.61643 | 47.31697 | 1978 ft | 169 kts | 354° |
| 2026-04-29 15:11 | 44.62808 | 47.31472 | 1973 ft | 169 kts | 354° |
| 2026-04-29 15:11 | 44.63970 | 47.31246 | 1981 ft | 169 kts | 354° |
| 2026-04-29 15:11 | 44.65132 | 47.31022 | 1979 ft | 168 kts | 353° |
| 2026-04-29 15:11 | 44.66277 | 47.30800 | 1977 ft | 168 kts | 353° |
| 2026-04-29 15:12 | 44.67435 | 47.30575 | 1977 ft | 168 kts | 353° |
| 2026-04-29 15:12 | 44.68219 | 47.30423 | 1977 ft | 168 kts | 354° |
| 2026-04-29 15:12 | 44.69759 | 47.30125 | 1978 ft | 169 kts | 353° |
| 2026-04-29 15:12 | 44.70923 | 47.29900 | 1976 ft | 169 kts | 353° |
| 2026-04-29 15:13 | 44.72088 | 47.29672 | 1977 ft | 169 kts | 354° |
| 2026-04-29 15:13 | 44.73251 | 47.29447 | 1977 ft | 169 kts | 353° |
| 2026-04-29 15:13 | 44.74416 | 47.29221 | 1978 ft | 169 kts | 353° |
| 2026-04-29 15:13 | 44.75577 | 47.28995 | 1977 ft | 169 kts | 353° |
| 2026-04-29 15:14 | 44.76741 | 47.28769 | 1977 ft | 169 kts | 353° |
| 2026-04-29 15:14 | 44.77898 | 47.28543 | 1977 ft | 168 kts | 353° |
| 2026-04-29 15:14 | 44.79052 | 47.28318 | 1978 ft | 167 kts | 353° |
| 2026-04-29 15:14 | 44.80200 | 47.28096 | 1978 ft | 166 kts | 354° |
| 2026-04-29 15:15 | 44.81345 | 47.27872 | 1978 ft | 166 kts | 354° |
| 2026-04-29 15:15 | 44.82495 | 47.27649 | 1978 ft | 167 kts | 354° |
| 2026-04-29 15:15 | 44.83643 | 47.27424 | 1977 ft | 166 kts | 354° |
| 2026-04-29 15:15 | 44.84792 | 47.27201 | 1977 ft | 167 kts | 354° |
| 2026-04-29 15:16 | 44.85926 | 47.26979 | 1981 ft | 166 kts | 354° |
| 2026-04-29 15:16 | 44.87069 | 47.26756 | 1981 ft | 166 kts | 354° |
| 2026-04-29 15:16 | 44.88217 | 47.26533 | 1980 ft | 167 kts | 354° |
| 2026-04-29 15:16 | 44.89371 | 47.26308 | 1977 ft | 167 kts | 354° |
| 2026-04-29 15:17 | 44.90522 | 47.26081 | 1977 ft | 167 kts | 354° |
| 2026-04-29 15:17 | 44.91678 | 47.25856 | 1977 ft | 168 kts | 354° |
| 2026-04-29 15:17 | 44.92833 | 47.25630 | 1977 ft | 167 kts | 354° |
| 2026-04-29 15:17 | 44.93981 | 47.25406 | 1977 ft | 167 kts | 354° |
| 2026-04-29 15:18 | 44.95128 | 47.25180 | 1981 ft | 166 kts | 354° |
| 2026-04-29 15:18 | 44.96277 | 47.24956 | 1981 ft | 167 kts | 353° |
| 2026-04-29 15:18 | 44.97432 | 47.24730 | 1982 ft | 168 kts | 353° |
| 2026-04-29 15:18 | 44.98589 | 47.24503 | 1978 ft | 168 kts | 353° |
| 2026-04-29 15:19 | 44.99740 | 47.24277 | 1978 ft | 167 kts | 354° |
| 2026-04-29 15:19 | 45.00889 | 47.24052 | 1977 ft | 167 kts | 353° |
| 2026-04-29 15:19 | 45.02038 | 47.23831 | 1977 ft | 167 kts | 354° |
| 2026-04-29 15:19 | 45.03195 | 47.23598 | 1978 ft | 168 kts | 353° |
| 2026-04-29 15:20 | 45.04356 | 47.23370 | 1977 ft | 168 kts | 352° |
| 2026-04-29 15:20 | 45.05517 | 47.23142 | 1977 ft | 169 kts | 352° |
| 2026-04-29 15:20 | 45.06688 | 47.22917 | 1981 ft | 171 kts | 353° |
| 2026-04-29 15:20 | 45.07868 | 47.22688 | 1978 ft | 171 kts | 353° |
| 2026-04-29 15:21 | 45.09031 | 47.22460 | 1981 ft | 170 kts | 354° |
| 2026-04-29 15:21 | 45.10190 | 47.22236 | 1980 ft | 171 kts | 353° |
| 2026-04-29 15:21 | 45.11368 | 47.22006 | 1979 ft | 171 kts | 352° |
| 2026-04-29 15:21 | 45.12546 | 47.21777 | 1981 ft | 171 kts | 354° |
| 2026-04-29 15:22 | 45.13727 | 47.21547 | 1979 ft | 171 kts | 353° |
| 2026-04-29 15:22 | 45.14906 | 47.21317 | 1978 ft | 171 kts | 353° |
| 2026-04-29 15:22 | 45.16090 | 47.21087 | 1980 ft | 171 kts | 353° |
| 2026-04-29 15:22 | 45.17267 | 47.20857 | 1981 ft | 171 kts | 353° |
| 2026-04-29 15:23 | 45.18449 | 47.20627 | 1976 ft | 172 kts | 353° |
| 2026-04-29 15:23 | 45.19629 | 47.20395 | 1977 ft | 171 kts | 353° |
| 2026-04-29 15:23 | 45.20805 | 47.20166 | 1977 ft | 171 kts | 353° |
| 2026-04-29 15:23 | 45.21981 | 47.19936 | 1978 ft | 170 kts | 353° |
| 2026-04-29 15:24 | 45.23156 | 47.19708 | 1979 ft | 170 kts | 354° |
| 2026-04-29 15:24 | 45.24329 | 47.19477 | 1980 ft | 170 kts | 353° |
| 2026-04-29 15:24 | 45.25502 | 47.19248 | 1980 ft | 170 kts | 353° |
| 2026-04-29 15:24 | 45.26670 | 47.19020 | 1981 ft | 169 kts | 352° |
| 2026-04-29 15:25 | 45.27831 | 47.18791 | 1977 ft | 168 kts | 352° |
| 2026-04-29 15:25 | 45.28990 | 47.18563 | 1978 ft | 168 kts | 353° |
| 2026-04-29 15:25 | 45.30154 | 47.18337 | 1977 ft | 170 kts | 354° |
| 2026-04-29 15:25 | 45.31310 | 47.18112 | 1978 ft | 170 kts | 353° |
| 2026-04-29 15:26 | 45.32478 | 47.17881 | 1977 ft | 169 kts | 353° |
| 2026-04-29 15:26 | 45.33646 | 47.17652 | 1979 ft | 170 kts | 353° |
| 2026-04-29 15:26 | 45.34818 | 47.17422 | 1980 ft | 170 kts | 354° |
| 2026-04-29 15:26 | 45.35983 | 47.17193 | 1978 ft | 171 kts | 353° |
| 2026-04-29 15:27 | 45.37159 | 47.16962 | 1983 ft | 172 kts | 353° |
| 2026-04-29 15:27 | 45.38346 | 47.16729 | 1980 ft | 172 kts | 353° |
| 2026-04-29 15:27 | 45.39527 | 47.16496 | 1979 ft | 171 kts | 353° |
| 2026-04-29 15:27 | 45.40704 | 47.16267 | 1982 ft | 171 kts | 352° |
| 2026-04-29 15:28 | 45.41885 | 47.16032 | 1977 ft | 172 kts | 354° |
| 2026-04-29 15:28 | 45.42669 | 47.15876 | 1978 ft | 172 kts | 354° |
| 2026-04-29 15:28 | 45.44259 | 47.15565 | 1981 ft | 172 kts | 353° |
| 2026-04-29 15:28 | 45.45444 | 47.15333 | 1980 ft | 171 kts | 352° |
| 2026-04-29 15:29 | 45.46629 | 47.15098 | 1977 ft | 172 kts | 352° |